FGSL

Malabo

Airport
ICAO code
FGSL
IATA Code
SSG
Summary
ICAO Region
AFI
ICAO Territory
Location

Punta Europa, Bioko Island, Bioko Island

Serving
Malabo
Elevation
76 ft
Coordinates
3° 45' 19" N , 8° 42' 31" E
KCC
Am
Metar
Observation
FGSL 170500Z 25005KT 9999 FEW010 24/23 Q1013 NOSIG
Station
Malabo/Fernando Poo
Date/Time
2022-08-17 05:00:00
Wind direction
250°
Wind speed
05 kts
Lowest cloud amount
few clouds
Temperature
24°C
Dew point
23°C
Humidity
94%
QNH
1013 hPa
Weather condition
n/a

Malabo Airport or Saint Isabel Airport is an airport located at Punta Europa, Bioko Island, Equatorial Guinea.

Climatology

Tropical Monsoon climate (Köppen climate classification Am)

Runways

Designator Length Width Surface Rops
5/23 2940 46 CON Yes/Yes

Airport map

Aerial View

SKYbrary Partners:

Safety knowledge contributed by: